Cottonwood, South Dakota
Current Conditions -  °F | °C
As of 2:55 AM on Friday 21 Nov 2014 (Local Time) from KPHP Reporting Station
Clear Clear  
Wind Chill: 15°   Ceiling: Unl
Heat Index: 15°   Visibility: 10mi
Dew Point:   Wind: 3mph
Humidity: 74%   Direction: 290°WNW
Pressure: 29.86"   Gusts: NA
Location:  44.0813°N, 102.067°W
Report Text: KPHP 210955Z AUTO 29003KT 10SM CLR M09/M13 A2986 RMK AO2 SLP139 T10941133
Loading
Personal Weather Stations






























Interactive Weather Map New forecast layout! Learn more

10-Day Weather Forecast

Advertisements
Track Severe Weather on mobile